Home   Weather   Qeshm Island   Past weeks
Flag for Iran

Past Weather in Qeshm Island, Iran — Yesterday and Last 2 Weeks

Currently: 93 °F. Passing clouds. (Weather station: Bandarabbass, Iran). See more current weather

Past Weather in Qeshm Island — Graph

°F

Qeshm Island Temperature Yesterday

Maximum temperature yesterday: 104 °F (at 6:30 pm)
Minimum temperature yesterday: 90 °F (at 2:30 am)
Average temperature yesterday: 97 °F

High & Low Weather Summary for the Past Weeks

 TemperatureHumidityPressure
High109 °F (Jul 21, 2:00 pm)84% (Jul 23, 6:30 am)29.59 "Hg (Jul 23, 6:30 am)
Low86 °F (Jul 10, 6:30 am)26% (Jul 24, 6:30 pm)29.27 "Hg (Jul 23, 5:30 pm)
Average96 °F60%29.44 "Hg
* Reported Jul 10 12:30 am — Jul 25 1:00 am, Qeshm Island. Weather by CustomWeather, © 2021

Note: Actual official high and low records may vary slightly from our data, if they occured in-between our weather recording intervals... More about our weather records

Qeshm Island Weather History for the Previous 24 Hours

Scroll right to see more
 ConditionsComfort  
Time TempWeatherWind HumidityBarometerVisibility
1:00 am
Sun, Jul 25
93 °FPassing clouds.5 mph41%29.45 "Hg2 mi
12:30 am93 °FPassing clouds.5 mph41%29.45 "Hg2 mi
12:00 am93 °FPassing clouds.2 mph44%29.45 "Hg2 mi
11:30 pm
Sat, Jul 24
93 °FPassing clouds.2 mph44%29.45 "Hg2 mi
11:00 pm95 °FPassing clouds.2 mph39%29.45 "Hg2 mi
10:30 pm95 °FPassing clouds.2 mph39%29.45 "Hg2 mi
10:00 pm95 °FPassing clouds.5 mph39%29.45 "Hg2 mi
9:30 pm95 °FHaze.No wind39%29.45 "Hg2 mi
9:00 pm97 °FHaze.5 mph37%29.45 "Hg2 mi
8:30 pm99 °FPassing clouds.9 mph35%29.42 "Hg2 mi
8:00 pm100 °FScattered clouds.7 mph31%29.42 "Hg1 mi
7:30 pm102 °FScattered clouds.7 mph31%29.42 "Hg2 mi
7:00 pm102 °FPartly sunny.12 mph29%29.42 "Hg2 mi
6:30 pm104 °FPartly sunny.12 mph26%29.39 "Hg2 mi
6:00 pm99 °FScattered clouds.12 mph60%29.39 "Hg2 mi
5:00 pm99 °FHaze.18 mph64%29.39 "Hg2 mi
4:30 pm100 °FHaze.16 mph60%29.39 "Hg2 mi
4:00 pm102 °FHaze.16 mph51%29.42 "Hg2 mi
3:30 pm102 °FHaze.16 mph51%29.42 "Hg2 mi
3:00 pm102 °FHaze.16 mph48%29.42 "Hg2 mi
2:30 pm102 °FHaze.18 mph48%29.42 "Hg2 mi
2:00 pm100 °FHaze.21 mph57%29.42 "Hg2 mi
1:30 pm100 °FHaze.21 mph53%29.42 "Hg2 mi
1:00 pm102 °FHaze.16 mph48%29.42 "Hg2 mi
12:30 pm102 °FHaze.16 mph48%29.42 "Hg2 mi
11:30 am102 °FHaze.14 mph45%29.45 "Hg2 mi
11:00 am100 °FHaze.12 mph47%29.45 "Hg2 mi
10:30 am100 °FHaze.12 mph50%29.45 "Hg2 mi
10:00 am100 °FHaze.5 mph50%29.45 "Hg2 mi
9:30 am100 °FHaze.5 mph50%29.45 "Hg2 mi
9:00 am97 °FHaze.5 mph60%29.45 "Hg2 mi
8:30 am97 °FHaze.7 mph60%29.42 "Hg2 mi
8:00 am97 °FHaze.5 mph63%29.42 "Hg2 mi
7:30 am91 °FHaze.5 mph71%29.42 "Hg2 mi
7:00 am90 °FHaze.5 mph71%29.42 "Hg2 mi
6:30 am90 °FHaze.5 mph67%29.42 "Hg3 mi
5:30 am90 °FHaze.7 mph63%29.39 "Hg3 mi
4:30 am90 °FHaze.7 mph67%29.36 "Hg3 mi
3:30 am90 °FHaze.5 mph67%29.36 "Hg3 mi
2:30 am90 °FHaze.5 mph67%29.33 "Hg3 mi
2:00 am91 °FHaze.5 mph63%29.33 "Hg3 mi
Weather by CustomWeather, © 2021

See weather overview